sensor_id;sensor_type;location;lat;lon;timestamp;pressure;altitude;pressure_sealevel;temperature;humidity
57048;BME280;42934;54.294;18.598;2023-01-31T00:01:20;99341.91;;;3.59;81.62
57048;BME280;42934;54.294;18.598;2023-01-31T00:03:52;99339.34;;;3.57;81.39
57048;BME280;42934;54.294;18.598;2023-01-31T00:06:26;99343.63;;;3.58;81.44
57048;BME280;42934;54.294;18.598;2023-01-31T00:08:57;99335.84;;;3.58;81.63
57048;BME280;42934;54.294;18.598;2023-01-31T00:11:28;99341.03;;;3.60;81.69
57048;BME280;42934;54.294;18.598;2023-01-31T00:14:00;99339.38;;;3.56;81.53
57048;BME280;42934;54.294;18.598;2023-01-31T00:16:31;99342.84;;;3.56;81.58
57048;BME280;42934;54.294;18.598;2023-01-31T00:19:02;99330.09;;;3.47;81.37
57048;BME280;42934;54.294;18.598;2023-01-31T00:21:31;99347.28;;;3.51;81.21
57048;BME280;42934;54.294;18.598;2023-01-31T00:24:01;99354.31;;;3.48;81.58
57048;BME280;42934;54.294;18.598;2023-01-31T00:26:33;99354.31;;;3.48;81.75
57048;BME280;42934;54.294;18.598;2023-01-31T00:29:05;99355.22;;;3.45;81.73
57048;BME280;42934;54.294;18.598;2023-01-31T00:31:37;99359.59;;;3.43;81.92
57048;BME280;42934;54.294;18.598;2023-01-31T00:34:07;99368.22;;;3.44;81.60
57048;BME280;42934;54.294;18.598;2023-01-31T00:36:37;99361.34;;;3.42;81.43
57048;BME280;42934;54.294;18.598;2023-01-31T00:39:10;99362.13;;;3.46;81.46
57048;BME280;42934;54.294;18.598;2023-01-31T00:41:39;99369.06;;;3.46;81.78
57048;BME280;42934;54.294;18.598;2023-01-31T00:44:08;99377.75;;;3.45;81.34
57048;BME280;42934;54.294;18.598;2023-01-31T00:46:39;99371.66;;;3.46;81.42
57048;BME280;42934;54.294;18.598;2023-01-31T00:49:09;99371.63;;;3.47;81.61
57048;BME280;42934;54.294;18.598;2023-01-31T00:51:38;99378.59;;;3.45;81.54
57048;BME280;42934;54.294;18.598;2023-01-31T00:54:07;99382.88;;;3.46;81.48
57048;BME280;42934;54.294;18.598;2023-01-31T00:56:36;99389.78;;;3.47;81.09
57048;BME280;42934;54.294;18.598;2023-01-31T00:59:06;99382.03;;;3.46;81.26
57048;BME280;42934;54.294;18.598;2023-01-31T01:01:35;99382.13;;;3.41;81.46
57048;BME280;42934;54.294;18.598;2023-01-31T01:04:07;99396.81;;;3.42;81.53
57048;BME280;42934;54.294;18.598;2023-01-31T01:06:39;99384.72;;;3.41;81.22
57048;BME280;42934;54.294;18.598;2023-01-31T01:09:11;99386.47;;;3.40;81.45
57048;BME280;42934;54.294;18.598;2023-01-31T01:11:41;99404.69;;;3.37;81.32
57048;BME280;42934;54.294;18.598;2023-01-31T01:14:10;99404.81;;;3.33;81.55
57048;BME280;42934;54.294;18.598;2023-01-31T01:16:39;99403.06;;;3.33;81.38
57048;BME280;42934;54.294;18.598;2023-01-31T01:19:14;99413.47;;;3.32;81.38
57048;BME280;42934;54.294;18.598;2023-01-31T01:21:46;99417.75;;;3.34;81.10
57048;BME280;42934;54.294;18.598;2023-01-31T01:24:18;99417.75;;;3.34;81.42
57048;BME280;42934;54.294;18.598;2023-01-31T01:26:47;99421.25;;;3.33;81.12
57048;BME280;42934;54.294;18.598;2023-01-31T01:29:17;99440.25;;;3.34;81.15
57048;BME280;42934;54.294;18.598;2023-01-31T01:31:46;99435.91;;;3.34;80.95
57048;BME280;42934;54.294;18.598;2023-01-31T01:34:17;99441.94;;;3.35;81.25
57048;BME280;42934;54.294;18.598;2023-01-31T01:36:47;99450.63;;;3.34;81.11
57048;BME280;42934;54.294;18.598;2023-01-31T01:39:17;99458.38;;;3.35;81.33
57048;BME280;42934;54.294;18.598;2023-01-31T01:41:46;99453.25;;;3.32;81.39
57048;BME280;42934;54.294;18.598;2023-01-31T01:44:45;99460.09;;;3.35;81.32
57048;BME280;42934;54.294;18.598;2023-01-31T01:47:31;99472.16;;;3.37;81.13
57048;BME280;42934;54.294;18.598;2023-01-31T01:50:09;99465.28;;;3.35;80.95
57048;BME280;42934;54.294;18.598;2023-01-31T01:52:43;99461.09;;;3.29;80.95
57048;BME280;42934;54.294;18.598;2023-01-31T01:55:19;99479.25;;;3.29;80.96
57048;BME280;42934;54.294;18.598;2023-01-31T01:57:53;99475.88;;;3.26;80.86
57048;BME280;42934;54.294;18.598;2023-01-31T02:00:26;99472.47;;;3.24;81.05
57048;BME280;42934;54.294;18.598;2023-01-31T02:02:58;99483.63;;;3.27;80.87
57048;BME280;42934;54.294;18.598;2023-01-31T02:05:32;99491.38;;;3.29;81.10
57048;BME280;42934;54.294;18.598;2023-01-31T02:08:03;99489.63;;;3.29;81.10
57048;BME280;42934;54.294;18.598;2023-01-31T02:10:37;99498.28;;;3.30;80.74
57048;BME280;42934;54.294;18.598;2023-01-31T02:13:08;99507.84;;;3.26;80.71
57048;BME280;42934;54.294;18.598;2023-01-31T02:15:39;99503.53;;;3.27;80.66
57048;BME280;42934;54.294;18.598;2023-01-31T02:18:09;99512.19;;;3.27;80.98
57048;BME280;42934;54.294;18.598;2023-01-31T02:21:04;99517.50;;;3.21;80.73
57048;BME280;42934;54.294;18.598;2023-01-31T02:24:05;99521.72;;;3.25;80.66
57048;BME280;42934;54.294;18.598;2023-01-31T02:26:58;99532.94;;;3.26;80.51
57048;BME280;42934;54.294;18.598;2023-01-31T02:29:53;99532.16;;;3.22;80.23
57048;BME280;42934;54.294;18.598;2023-01-31T02:32:51;99534.81;;;3.19;80.19
57048;BME280;42934;54.294;18.598;2023-01-31T02:35:32;99543.44;;;3.21;80.53
57048;BME280;42934;54.294;18.598;2023-01-31T02:38:15;99554.75;;;3.17;80.57
57048;BME280;42934;54.294;18.598;2023-01-31T02:40:53;99564.25;;;3.18;80.21
57048;BME280;42934;54.294;18.598;2023-01-31T02:43:34;99556.47;;;3.18;80.03
57048;BME280;42934;54.294;18.598;2023-01-31T02:46:33;99559.91;;;3.18;80.06
57048;BME280;42934;54.294;18.598;2023-01-31T02:49:11;99562.50;;;3.18;80.25
57048;BME280;42934;54.294;18.598;2023-01-31T02:52:17;99561.66;;;3.16;79.99
57048;BME280;42934;54.294;18.598;2023-01-31T02:54:59;99558.31;;;3.11;79.96
57048;BME280;42934;54.294;18.598;2023-01-31T02:57:52;99566.09;;;3.11;80.40
57048;BME280;42934;54.294;18.598;2023-01-31T03:00:24;99572.03;;;3.16;80.03
57048;BME280;42934;54.294;18.598;2023-01-31T03:02:54;99585.91;;;3.15;79.70
57048;BME280;42934;54.294;18.598;2023-01-31T03:05:26;99586.78;;;3.14;80.00
57048;BME280;42934;54.294;18.598;2023-01-31T03:07:58;99593.72;;;3.14;79.63
57048;BME280;42934;54.294;18.598;2023-01-31T03:10:54;99600.63;;;3.15;80.11
57048;BME280;42934;54.294;18.598;2023-01-31T03:13:40;99611.00;;;3.15;79.80
57048;BME280;42934;54.294;18.598;2023-01-31T03:16:21;99612.69;;;3.16;79.70
57048;BME280;42934;54.294;18.598;2023-01-31T03:19:13;99617.84;;;3.17;79.33
57048;BME280;42934;54.294;18.598;2023-01-31T03:21:50;99631.75;;;3.15;79.78
57048;BME280;42934;54.294;18.598;2023-01-31T03:24:21;99630.84;;;3.16;79.61
57048;BME280;42934;54.294;18.598;2023-01-31T03:26:55;99628.19;;;3.19;79.56
57048;BME280;42934;54.294;18.598;2023-01-31T03:29:27;99621.38;;;3.15;79.64
57048;BME280;42934;54.294;18.598;2023-01-31T03:32:02;99622.28;;;3.12;79.73
57048;BME280;42934;54.294;18.598;2023-01-31T03:34:33;99625.75;;;3.11;79.31
57048;BME280;42934;54.294;18.598;2023-01-31T03:37:12;99633.50;;;3.13;79.44
57048;BME280;42934;54.294;18.598;2023-01-31T03:39:50;99639.53;;;3.13;79.38
57048;BME280;42934;54.294;18.598;2023-01-31T03:42:26;99631.75;;;3.13;79.06
57048;BME280;42934;54.294;18.598;2023-01-31T03:45:01;99636.06;;;3.14;79.07
57048;BME280;42934;54.294;18.598;2023-01-31T03:47:37;99654.31;;;3.10;79.15
57048;BME280;42934;54.294;18.598;2023-01-31T03:50:12;99651.66;;;3.11;79.13
57048;BME280;42934;54.294;18.598;2023-01-31T03:52:50;99650.81;;;3.12;79.06
57048;BME280;42934;54.294;18.598;2023-01-31T03:55:26;99649.91;;;3.13;79.14
57048;BME280;42934;54.294;18.598;2023-01-31T03:57:59;99652.50;;;3.13;78.84
57048;BME280;42934;54.294;18.598;2023-01-31T04:00:35;99659.44;;;3.13;78.82
57048;BME280;42934;54.294;18.598;2023-01-31T04:03:09;99647.31;;;3.13;78.91
57048;BME280;42934;54.294;18.598;2023-01-31T04:05:43;99654.25;;;3.13;79.08
57048;BME280;42934;54.294;18.598;2023-01-31T04:08:15;99658.66;;;3.09;79.03
57048;BME280;42934;54.294;18.598;2023-01-31T04:10:52;99650.88;;;3.08;78.69
57048;BME280;42934;54.294;18.598;2023-01-31T04:13:23;99655.22;;;3.07;78.79
57048;BME280;42934;54.294;18.598;2023-01-31T04:15:53;99659.50;;;3.08;78.73
57048;BME280;42934;54.294;18.598;2023-01-31T04:18:22;99669.03;;;3.09;78.84
57048;BME280;42934;54.294;18.598;2023-01-31T04:20:51;99667.28;;;3.08;78.55
57048;BME280;42934;54.294;18.598;2023-01-31T04:23:22;99676.88;;;3.06;78.46
57048;BME280;42934;54.294;18.598;2023-01-31T04:25:53;99672.63;;;3.01;78.58
57048;BME280;42934;54.294;18.598;2023-01-31T04:28:23;99676.94;;;3.02;78.61
57048;BME280;42934;54.294;18.598;2023-01-31T04:30:52;99692.47;;;3.03;78.56
57048;BME280;42934;54.294;18.598;2023-01-31T04:33:23;99682.97;;;3.02;79.05
57048;BME280;42934;54.294;18.598;2023-01-31T04:35:52;99684.66;;;3.05;78.72
57048;BME280;42934;54.294;18.598;2023-01-31T04:38:22;99687.25;;;3.05;78.69
57048;BME280;42934;54.294;18.598;2023-01-31T04:40:51;99684.72;;;3.02;78.46
57048;BME280;42934;54.294;18.598;2023-01-31T04:43:21;99695.97;;;2.99;78.59
57048;BME280;42934;54.294;18.598;2023-01-31T04:45:50;99696.88;;;2.96;78.68
57048;BME280;42934;54.294;18.598;2023-01-31T04:48:19;99697.78;;;2.94;78.22
57048;BME280;42934;54.294;18.598;2023-01-31T04:50:48;99713.34;;;2.94;78.22
57048;BME280;42934;54.294;18.598;2023-01-31T04:53:17;99708.19;;;2.92;78.26
57048;BME280;42934;54.294;18.598;2023-01-31T04:55:53;99725.44;;;2.95;78.37
57048;BME280;42934;54.294;18.598;2023-01-31T04:58:22;99715.97;;;2.92;78.21
57048;BME280;42934;54.294;18.598;2023-01-31T05:00:53;99731.50;;;2.94;77.86
57048;BME280;42934;54.294;18.598;2023-01-31T05:03:22;99728.03;;;2.95;78.10
57048;BME280;42934;54.294;18.598;2023-01-31T05:05:51;99721.97;;;2.96;77.86
57048;BME280;42934;54.294;18.598;2023-01-31T05:08:21;99728.84;;;2.97;78.19
57048;BME280;42934;54.294;18.598;2023-01-31T05:10:56;99722.88;;;2.93;77.84
57048;BME280;42934;54.294;18.598;2023-01-31T05:13:26;99729.94;;;2.84;77.54
57048;BME280;42934;54.294;18.598;2023-01-31T05:15:56;99726.41;;;2.89;78.00
57048;BME280;42934;54.294;18.598;2023-01-31T05:18:25;99728.97;;;2.91;77.73
57048;BME280;42934;54.294;18.598;2023-01-31T05:20:54;99718.69;;;2.85;77.54
57048;BME280;42934;54.294;18.598;2023-01-31T05:23:24;99721.28;;;2.85;77.58
57048;BME280;42934;54.294;18.598;2023-01-31T05:25:54;99720.41;;;2.86;77.48
57048;BME280;42934;54.294;18.598;2023-01-31T05:28:24;99718.69;;;2.85;77.73
57048;BME280;42934;54.294;18.598;2023-01-31T05:31:00;99737.78;;;2.79;77.93
57048;BME280;42934;54.294;18.598;2023-01-31T05:33:30;99741.31;;;2.77;77.57
57048;BME280;42934;54.294;18.598;2023-01-31T05:36:00;99737.03;;;2.72;77.84
57048;BME280;42934;54.294;18.598;2023-01-31T05:38:30;99749.03;;;2.78;77.64
57048;BME280;42934;54.294;18.598;2023-01-31T05:41:01;99743.91;;;2.73;77.76
57048;BME280;42934;54.294;18.598;2023-01-31T05:43:30;99757.75;;;2.74;77.81
57048;BME280;42934;54.294;18.598;2023-01-31T05:46:02;99758.63;;;2.73;77.78
57048;BME280;42934;54.294;18.598;2023-01-31T05:48:32;99762.91;;;2.76;78.23
57048;BME280;42934;54.294;18.598;2023-01-31T05:51:01;99768.13;;;2.74;78.42
57048;BME280;42934;54.294;18.598;2023-01-31T05:53:30;99769.13;;;2.65;78.52
57048;BME280;42934;54.294;18.598;2023-01-31T05:56:00;99781.09;;;2.74;78.25
57048;BME280;42934;54.294;18.598;2023-01-31T05:58:30;99784.50;;;2.76;78.57
57048;BME280;42934;54.294;18.598;2023-01-31T06:00:59;99792.25;;;2.78;78.55
57048;BME280;42934;54.294;18.598;2023-01-31T06:03:28;99804.34;;;2.79;78.56
57048;BME280;42934;54.294;18.598;2023-01-31T06:05:57;99804.31;;;2.80;78.29
57048;BME280;42934;54.294;18.598;2023-01-31T06:08:27;99820.75;;;2.79;78.42
57048;BME280;42934;54.294;18.598;2023-01-31T06:10:56;99825.91;;;2.81;78.51
57048;BME280;42934;54.294;18.598;2023-01-31T06:13:27;99829.34;;;2.83;78.51
57048;BME280;42934;54.294;18.598;2023-01-31T06:15:56;99832.78;;;2.83;78.33
57048;BME280;42934;54.294;18.598;2023-01-31T06:18:27;99840.53;;;2.86;78.56
57048;BME280;42934;54.294;18.598;2023-01-31T06:20:57;99844.88;;;2.86;78.08
57048;BME280;42934;54.294;18.598;2023-01-31T06:23:27;99852.69;;;2.83;78.10
57048;BME280;42934;54.294;18.598;2023-01-31T06:25:56;99861.31;;;2.82;78.31
57048;BME280;42934;54.294;18.598;2023-01-31T06:28:28;99863.06;;;2.83;78.76
57048;BME280;42934;54.294;18.598;2023-01-31T06:30:57;99873.38;;;2.84;78.47
57048;BME280;42934;54.294;18.598;2023-01-31T06:33:26;99879.47;;;2.82;78.86
57048;BME280;42934;54.294;18.598;2023-01-31T06:36:12;99882.06;;;2.82;78.62
57048;BME280;42934;54.294;18.598;2023-01-31T06:38:48;99882.00;;;2.86;78.80
57048;BME280;42934;54.294;18.598;2023-01-31T06:41:18;99889.88;;;2.80;78.73
57048;BME280;42934;54.294;18.598;2023-01-31T06:43:50;99879.47;;;2.82;78.72
57048;BME280;42934;54.294;18.598;2023-01-31T06:46:19;99895.97;;;2.78;78.56
57048;BME280;42934;54.294;18.598;2023-01-31T06:48:49;99895.06;;;2.80;78.61
57048;BME280;42934;54.294;18.598;2023-01-31T06:51:17;99910.56;;;2.83;78.91
57048;BME280;42934;54.294;18.598;2023-01-31T06:53:47;99904.47;;;2.87;78.63
57048;BME280;42934;54.294;18.598;2023-01-31T06:56:18;99915.69;;;2.89;78.86
57048;BME280;42934;54.294;18.598;2023-01-31T06:58:48;99909.75;;;2.80;78.48
57048;BME280;42934;54.294;18.598;2023-01-31T07:01:17;99919.22;;;2.84;78.39
57048;BME280;42934;54.294;18.598;2023-01-31T07:03:49;99920.91;;;2.86;78.86
57048;BME280;42934;54.294;18.598;2023-01-31T07:06:18;99913.13;;;2.86;78.53
57048;BME280;42934;54.294;18.598;2023-01-31T07:08:48;99920.06;;;2.84;78.16
57048;BME280;42934;54.294;18.598;2023-01-31T07:11:18;99914.91;;;2.83;78.49
57048;BME280;42934;54.294;18.598;2023-01-31T07:13:49;99916.56;;;2.85;78.26
57048;BME280;42934;54.294;18.598;2023-01-31T07:16:18;99918.34;;;2.83;78.55
57048;BME280;42934;54.294;18.598;2023-01-31T07:18:51;99926.94;;;2.88;78.32
57048;BME280;42934;54.294;18.598;2023-01-31T07:21:21;99927.75;;;2.92;78.50
57048;BME280;42934;54.294;18.598;2023-01-31T07:23:51;99927.66;;;2.98;77.93
57048;BME280;42934;54.294;18.598;2023-01-31T07:26:20;99929.41;;;2.98;77.79
57048;BME280;42934;54.294;18.598;2023-01-31T07:28:51;99925.00;;;3.04;77.78
57048;BME280;42934;54.294;18.598;2023-01-31T07:31:21;99925.88;;;3.03;78.13
57048;BME280;42934;54.294;18.598;2023-01-31T07:33:51;99917.22;;;3.04;78.04
57048;BME280;42934;54.294;18.598;2023-01-31T07:36:20;99924.19;;;3.01;77.50
57048;BME280;42934;54.294;18.598;2023-01-31T07:38:54;99925.84;;;3.06;77.23
57048;BME280;42934;54.294;18.598;2023-01-31T07:41:24;99932.69;;;3.10;77.37
57048;BME280;42934;54.294;18.598;2023-01-31T07:43:56;99926.63;;;3.10;77.36
57048;BME280;42934;54.294;18.598;2023-01-31T07:46:26;99931.78;;;3.13;77.01
57048;BME280;42934;54.294;18.598;2023-01-31T07:48:55;99934.28;;;3.17;76.84
57048;BME280;42934;54.294;18.598;2023-01-31T07:51:25;99934.28;;;3.19;76.93
57048;BME280;42934;54.294;18.598;2023-01-31T07:53:55;99935.94;;;3.25;76.91
57048;BME280;42934;54.294;18.598;2023-01-31T07:56:24;99946.28;;;3.28;76.46
57048;BME280;42934;54.294;18.598;2023-01-31T07:58:55;99942.69;;;3.35;76.68
57048;BME280;42934;54.294;18.598;2023-01-31T08:01:26;99949.59;;;3.39;76.40
57048;BME280;42934;54.294;18.598;2023-01-31T08:04:16;99955.53;;;3.46;76.63
57048;BME280;42934;54.294;18.598;2023-01-31T08:06:52;99977.09;;;3.49;76.56
57048;BME280;42934;54.294;18.598;2023-01-31T08:09:23;99971.09;;;3.47;76.07
57048;BME280;42934;54.294;18.598;2023-01-31T08:11:52;99959.78;;;3.50;75.88
57048;BME280;42934;54.294;18.598;2023-01-31T08:14:23;99984.06;;;3.47;75.50
57048;BME280;42934;54.294;18.598;2023-01-31T08:16:55;99953.63;;;3.57;76.03
57048;BME280;42934;54.294;18.598;2023-01-31T08:19:24;99974.25;;;3.64;75.54
57048;BME280;42934;54.294;18.598;2023-01-31T08:21:54;99966.47;;;3.64;75.39
57048;BME280;42934;54.294;18.598;2023-01-31T08:24:23;99974.16;;;3.72;75.47
57048;BME280;42934;54.294;18.598;2023-01-31T08:26:53;99964.69;;;3.70;74.65
57048;BME280;42934;54.294;18.598;2023-01-31T08:29:24;99972.41;;;3.73;75.00
57048;BME280;42934;54.294;18.598;2023-01-31T08:31:54;99979.31;;;3.75;74.85
57048;BME280;42934;54.294;18.598;2023-01-31T08:34:24;99976.66;;;3.78;74.82
57048;BME280;42934;54.294;18.598;2023-01-31T08:36:54;99979.31;;;3.75;74.66
57048;BME280;42934;54.294;18.598;2023-01-31T08:39:24;99987.38;;;3.55;73.35
57048;BME280;42934;54.294;18.598;2023-01-31T08:41:57;99989.94;;;3.60;74.23
57048;BME280;42934;54.294;18.598;2023-01-31T08:44:28;99982.94;;;3.65;74.20
57048;BME280;42934;54.294;18.598;2023-01-31T08:46:58;99978.47;;;3.73;74.28
57048;BME280;42934;54.294;18.598;2023-01-31T08:49:29;99984.38;;;3.83;74.23
57048;BME280;42934;54.294;18.598;2023-01-31T08:52:00;99997.31;;;3.86;73.91
57048;BME280;42934;54.294;18.598;2023-01-31T08:54:29;99987.63;;;3.96;74.14
57048;BME280;42934;54.294;18.598;2023-01-31T08:56:59;99988.69;;;3.85;72.97
57048;BME280;42934;54.294;18.598;2023-01-31T08:59:30;99987.63;;;3.97;73.54
57048;BME280;42934;54.294;18.598;2023-01-31T09:01:59;99999.69;;;4.00;73.24
57048;BME280;42934;54.294;18.598;2023-01-31T09:04:29;99997.00;;;4.06;73.50
57048;BME280;42934;54.294;18.598;2023-01-31T09:06:59;99996.97;;;4.09;73.30
57048;BME280;42934;54.294;18.598;2023-01-31T09:09:28;99997.75;;;4.13;73.73
57048;BME280;42934;54.294;18.598;2023-01-31T09:11:58;100002.38;;;3.95;72.24
57048;BME280;42934;54.294;18.598;2023-01-31T09:14:28;100005.66;;;4.05;73.09
57048;BME280;42934;54.294;18.598;2023-01-31T09:16:58;100012.56;;;4.07;72.99
57048;BME280;42934;54.294;18.598;2023-01-31T09:19:27;100020.25;;;4.14;72.92
57048;BME280;42934;54.294;18.598;2023-01-31T09:21:57;100016.91;;;4.07;72.37
57048;BME280;42934;54.294;18.598;2023-01-31T09:24:27;100022.84;;;4.15;72.79
57048;BME280;42934;54.294;18.598;2023-01-31T09:26:56;100033.19;;;4.18;72.61
57048;BME280;42934;54.294;18.598;2023-01-31T09:29:26;100025.28;;;4.24;72.91
57048;BME280;42934;54.294;18.598;2023-01-31T09:31:58;100034.81;;;4.24;72.48
57048;BME280;42934;54.294;18.598;2023-01-31T09:34:28;100021.78;;;4.25;72.29
57048;BME280;42934;54.294;18.598;2023-01-31T09:36:57;100025.38;;;4.18;71.95
57048;BME280;42934;54.294;18.598;2023-01-31T09:39:27;100030.44;;;4.26;72.77
57048;BME280;42934;54.294;18.598;2023-01-31T09:41:58;100029.47;;;4.31;72.49
57048;BME280;42934;54.294;18.598;2023-01-31T09:44:32;100024.09;;;4.42;72.23
57048;BME280;42934;54.294;18.598;2023-01-31T09:47:11;100028.28;;;4.51;71.54
57048;BME280;42934;54.294;18.598;2023-01-31T09:49:45;100025.75;;;4.46;70.58
57048;BME280;42934;54.294;18.598;2023-01-31T09:52:16;100030.72;;;4.59;71.50
57048;BME280;42934;54.294;18.598;2023-01-31T09:54:46;100019.28;;;4.69;70.58
57048;BME280;42934;54.294;18.598;2023-01-31T09:57:24;100015.78;;;4.70;69.76
57048;BME280;42934;54.294;18.598;2023-01-31T10:00:03;100024.53;;;4.66;69.91
57048;BME280;42934;54.294;18.598;2023-01-31T10:03:05;100022.78;;;4.68;69.60
57048;BME280;42934;54.294;18.598;2023-01-31T10:05:50;100027.09;;;4.69;69.56
57048;BME280;42934;54.294;18.598;2023-01-31T10:08:35;100024.50;;;4.67;69.38
57048;BME280;42934;54.294;18.598;2023-01-31T10:11:13;100025.38;;;4.68;70.04
57048;BME280;42934;54.294;18.598;2023-01-31T10:13:46;100026.28;;;4.65;69.86
57048;BME280;42934;54.294;18.598;2023-01-31T10:16:22;100034.88;;;4.69;69.91
57048;BME280;42934;54.294;18.598;2023-01-31T10:18:58;100040.03;;;4.70;70.26
57048;BME280;42934;54.294;18.598;2023-01-31T10:21:33;100034.88;;;4.69;69.93
57048;BME280;42934;54.294;18.598;2023-01-31T10:24:12;100030.56;;;4.68;69.41
57048;BME280;42934;54.294;18.598;2023-01-31T10:26:45;100028.72;;;4.73;69.59
57048;BME280;42934;54.294;18.598;2023-01-31T10:29:22;100039.28;;;4.65;68.38
57048;BME280;42934;54.294;18.598;2023-01-31T10:31:59;100030.47;;;4.72;69.46
57048;BME280;42934;54.294;18.598;2023-01-31T10:34:36;100032.09;;;4.80;69.67
57048;BME280;42934;54.294;18.598;2023-01-31T10:37:13;100027.63;;;4.86;69.32
57048;BME280;42934;54.294;18.598;2023-01-31T10:39:49;100032.03;;;4.81;68.27
57048;BME280;42934;54.294;18.598;2023-01-31T10:42:26;100024.22;;;4.83;68.15
57048;BME280;42934;54.294;18.598;2023-01-31T10:45:01;100017.09;;;4.91;68.22
57048;BME280;42934;54.294;18.598;2023-01-31T10:47:36;100020.59;;;4.91;68.52
57048;BME280;42934;54.294;18.598;2023-01-31T10:50:14;100012.88;;;4.87;67.87
57048;BME280;42934;54.294;18.598;2023-01-31T10:52:53;100004.22;;;4.86;68.50
57048;BME280;42934;54.294;18.598;2023-01-31T10:55:39;99994.78;;;4.81;67.84
57048;BME280;42934;54.294;18.598;2023-01-31T10:58:13;99993.28;;;4.69;67.92
57048;BME280;42934;54.294;18.598;2023-01-31T11:00:43;99988.09;;;4.67;67.56
57048;BME280;42934;54.294;18.598;2023-01-31T11:03:14;99982.94;;;4.66;67.96
57048;BME280;42934;54.294;18.598;2023-01-31T11:05:48;99989.28;;;4.49;66.68
57048;BME280;42934;54.294;18.598;2023-01-31T11:08:27;99983.16;;;4.53;67.26
57048;BME280;42934;54.294;18.598;2023-01-31T11:11:03;99982.63;;;4.35;66.34
57048;BME280;42934;54.294;18.598;2023-01-31T11:13:33;99974.94;;;4.30;65.89
57048;BME280;42934;54.294;18.598;2023-01-31T11:16:03;99976.63;;;4.32;66.43
57048;BME280;42934;54.294;18.598;2023-01-31T11:18:37;99974.78;;;4.38;66.67
57048;BME280;42934;54.294;18.598;2023-01-31T11:21:19;99974.03;;;4.32;66.51
57048;BME280;42934;54.294;18.598;2023-01-31T11:23:51;99973.19;;;4.30;66.64
57048;BME280;42934;54.294;18.598;2023-01-31T11:26:26;99971.38;;;4.34;66.29
57048;BME280;42934;54.294;18.598;2023-01-31T11:28:57;99966.13;;;4.39;67.25
57048;BME280;42934;54.294;18.598;2023-01-31T11:31:32;99958.19;;;4.45;66.89
57048;BME280;42934;54.294;18.598;2023-01-31T11:34:05;99966.06;;;4.40;66.78
57048;BME280;42934;54.294;18.598;2023-01-31T11:36:47;99961.91;;;4.31;66.32
57048;BME280;42934;54.294;18.598;2023-01-31T11:39:27;99947.09;;;4.37;66.32
57048;BME280;42934;54.294;18.598;2023-01-31T11:42:05;99950.38;;;4.46;66.44
57048;BME280;42934;54.294;18.598;2023-01-31T11:44:34;99954.81;;;4.41;66.04
57048;BME280;42934;54.294;18.598;2023-01-31T11:47:04;99942.75;;;4.37;66.08
57048;BME280;42934;54.294;18.598;2023-01-31T11:49:41;99937.47;;;4.42;65.66
57048;BME280;42934;54.294;18.598;2023-01-31T11:52:14;99934.94;;;4.39;65.45
57048;BME280;42934;54.294;18.598;2023-01-31T11:54:47;99931.66;;;4.27;64.91
57048;BME280;42934;54.294;18.598;2023-01-31T11:57:23;99925.38;;;4.39;65.83
57048;BME280;42934;54.294;18.598;2023-01-31T11:59:55;99927.81;;;4.47;65.96
57048;BME280;42934;54.294;18.598;2023-01-31T12:02:32;99915.81;;;4.41;65.29
57048;BME280;42934;54.294;18.598;2023-01-31T12:05:12;99911.41;;;4.45;64.88
57048;BME280;42934;54.294;18.598;2023-01-31T12:07:45;99914.94;;;4.41;65.56
57048;BME280;42934;54.294;18.598;2023-01-31T12:10:29;99910.63;;;4.40;64.88
57048;BME280;42934;54.294;18.598;2023-01-31T12:13:01;99914.13;;;4.39;64.83
57048;BME280;42934;54.294;18.598;2023-01-31T12:15:49;99912.41;;;4.38;64.33
57048;BME280;42934;54.294;18.598;2023-01-31T12:18:54;99912.53;;;4.31;64.16
57048;BME280;42934;54.294;18.598;2023-01-31T12:21:39;99911.66;;;4.32;64.04
57048;BME280;42934;54.294;18.598;2023-01-31T12:24:23;99896.84;;;4.36;64.57
57048;BME280;42934;54.294;18.598;2023-01-31T12:26:58;99905.50;;;4.35;63.91
57048;BME280;42934;54.294;18.598;2023-01-31T12:29:45;99906.34;;;4.39;64.04
57048;BME280;42934;54.294;18.598;2023-01-31T12:32:38;99904.59;;;4.39;64.20
57048;BME280;42934;54.294;18.598;2023-01-31T12:35:33;99899.34;;;4.41;64.79
57048;BME280;42934;54.294;18.598;2023-01-31T12:38:14;99906.41;;;4.36;64.66
57048;BME280;42934;54.294;18.598;2023-01-31T12:40:57;99900.31;;;4.35;65.08
57048;BME280;42934;54.294;18.598;2023-01-31T12:43:49;99896.06;;;4.31;64.83
57048;BME280;42934;54.294;18.598;2023-01-31T12:46:24;99890.81;;;4.36;65.10
57048;BME280;42934;54.294;18.598;2023-01-31T12:49:18;99885.09;;;4.17;63.68
57048;BME280;42934;54.294;18.598;2023-01-31T12:52:00;99876.38;;;4.21;64.98
57048;BME280;42934;54.294;18.598;2023-01-31T12:54:44;99882.53;;;4.14;64.13
57048;BME280;42934;54.294;18.598;2023-01-31T12:57:39;99873.66;;;4.25;64.75
57048;BME280;42934;54.294;18.598;2023-01-31T13:00:22;99863.22;;;4.28;64.38
57048;BME280;42934;54.294;18.598;2023-01-31T13:05:58;99858.97;;;4.23;64.54
57048;BME280;42934;54.294;18.598;2023-01-31T13:08:29;99853.72;;;4.26;64.76
57048;BME280;42934;54.294;18.598;2023-01-31T13:11:02;99846.69;;;4.32;64.80
57048;BME280;42934;54.294;18.598;2023-01-31T13:13:40;99844.03;;;4.36;65.07
57048;BME280;42934;54.294;18.598;2023-01-31T13:16:15;99849.19;;;4.37;64.95
57048;BME280;42934;54.294;18.598;2023-01-31T13:18:49;99839.63;;;4.38;65.05
57048;BME280;42934;54.294;18.598;2023-01-31T13:21:23;99844.88;;;4.36;65.11
57048;BME280;42934;54.294;18.598;2023-01-31T13:23:57;99841.56;;;4.29;65.07
57048;BME280;42934;54.294;18.598;2023-01-31T13:26:30;99831.94;;;4.33;64.99
57048;BME280;42934;54.294;18.598;2023-01-31T13:29:06;99829.34;;;4.33;65.36
57048;BME280;42934;54.294;18.598;2023-01-31T13:31:43;99833.69;;;4.32;65.82
57048;BME280;42934;54.294;18.598;2023-01-31T13:34:18;99833.69;;;4.32;66.07
57048;BME280;42934;54.294;18.598;2023-01-31T13:36:53;99838.84;;;4.34;65.82
57048;BME280;42934;54.294;18.598;2023-01-31T13:39:27;99840.59;;;4.33;65.75